sensor_id;sensor_type;location;lat;lon;timestamp;P1;durP1;ratioP1;P2;durP2;ratioP2
30934;SDS011;51033;42.648;23.292;2023-06-22T00:00:31;8.00;;;6.22;;
30934;SDS011;51033;42.648;23.292;2023-06-22T00:02:56;7.57;;;6.30;;
30934;SDS011;51033;42.648;23.292;2023-06-22T00:05:21;7.63;;;5.63;;
30934;SDS011;51033;42.648;23.292;2023-06-22T00:07:47;8.02;;;6.35;;
30934;SDS011;51033;42.648;23.292;2023-06-22T00:10:12;7.38;;;5.68;;
30934;SDS011;51033;42.648;23.292;2023-06-22T00:12:37;7.07;;;5.93;;
30934;SDS011;51033;42.648;23.292;2023-06-22T00:15:03;5.80;;;5.30;;
30934;SDS011;51033;42.648;23.292;2023-06-22T00:17:29;6.45;;;5.85;;
30934;SDS011;51033;42.648;23.292;2023-06-22T00:19:54;7.30;;;5.30;;
30934;SDS011;51033;42.648;23.292;2023-06-22T00:22:20;6.75;;;5.43;;
30934;SDS011;51033;42.648;23.292;2023-06-22T00:24:53;6.57;;;5.93;;
30934;SDS011;51033;42.648;23.292;2023-06-22T00:27:19;5.95;;;5.30;;
30934;SDS011;51033;42.648;23.292;2023-06-22T00:29:45;6.15;;;5.32;;
30934;SDS011;51033;42.648;23.292;2023-06-22T00:32:10;6.07;;;4.70;;
30934;SDS011;51033;42.648;23.292;2023-06-22T00:34:36;7.28;;;5.68;;
30934;SDS011;51033;42.648;23.292;2023-06-22T00:37:01;5.57;;;4.95;;
30934;SDS011;51033;42.648;23.292;2023-06-22T00:39:27;5.60;;;5.05;;
30934;SDS011;51033;42.648;23.292;2023-06-22T00:41:52;8.43;;;5.60;;
30934;SDS011;51033;42.648;23.292;2023-06-22T00:44:18;6.00;;;5.40;;
30934;SDS011;51033;42.648;23.292;2023-06-22T00:46:43;5.70;;;5.10;;
30934;SDS011;51033;42.648;23.292;2023-06-22T00:49:09;8.27;;;5.85;;
30934;SDS011;51033;42.648;23.292;2023-06-22T00:51:34;6.10;;;5.43;;
30934;SDS011;51033;42.648;23.292;2023-06-22T00:54:03;7.05;;;6.15;;
30934;SDS011;51033;42.648;23.292;2023-06-22T00:56:30;5.88;;;5.35;;
30934;SDS011;51033;42.648;23.292;2023-06-22T00:58:57;5.57;;;5.03;;
30934;SDS011;51033;42.648;23.292;2023-06-22T01:01:24;6.93;;;5.60;;
30934;SDS011;51033;42.648;23.292;2023-06-22T01:03:50;6.80;;;6.10;;
30934;SDS011;51033;42.648;23.292;2023-06-22T01:06:18;10.45;;;6.03;;
30934;SDS011;51033;42.648;23.292;2023-06-22T01:08:53;6.55;;;5.85;;
30934;SDS011;51033;42.648;23.292;2023-06-22T01:11:28;6.20;;;5.30;;
30934;SDS011;51033;42.648;23.292;2023-06-22T01:16:40;10.23;;;7.50;;
30934;SDS011;51033;42.648;23.292;2023-06-22T01:22:05;11.55;;;6.85;;
30934;SDS011;51033;42.648;23.292;2023-06-22T01:30:30;6.85;;;6.13;;
30934;SDS011;51033;42.648;23.292;2023-06-22T01:32:59;7.60;;;5.95;;
30934;SDS011;51033;42.648;23.292;2023-06-22T01:35:27;8.13;;;6.38;;
30934;SDS011;51033;42.648;23.292;2023-06-22T01:37:53;7.50;;;6.78;;
30934;SDS011;51033;42.648;23.292;2023-06-22T01:40:20;9.70;;;5.90;;
30934;SDS011;51033;42.648;23.292;2023-06-22T01:42:46;6.95;;;6.25;;
30934;SDS011;51033;42.648;23.292;2023-06-22T01:45:13;7.90;;;6.63;;
30934;SDS011;51033;42.648;23.292;2023-06-22T01:47:39;8.85;;;6.47;;
30934;SDS011;51033;42.648;23.292;2023-06-22T01:50:06;7.72;;;6.55;;
30934;SDS011;51033;42.648;23.292;2023-06-22T01:52:31;8.77;;;5.70;;
30934;SDS011;51033;42.648;23.292;2023-06-22T01:54:59;7.38;;;6.50;;
30934;SDS011;51033;42.648;23.292;2023-06-22T01:57:25;7.97;;;6.85;;
30934;SDS011;51033;42.648;23.292;2023-06-22T02:02:22;6.88;;;5.95;;
30934;SDS011;51033;42.648;23.292;2023-06-22T02:04:55;7.70;;;6.45;;
30934;SDS011;51033;42.648;23.292;2023-06-22T02:07:26;8.05;;;7.20;;
30934;SDS011;51033;42.648;23.292;2023-06-22T02:09:57;7.63;;;6.80;;
30934;SDS011;51033;42.648;23.292;2023-06-22T02:12:25;10.27;;;7.18;;
30934;SDS011;51033;42.648;23.292;2023-06-22T02:14:53;9.07;;;6.93;;
30934;SDS011;51033;42.648;23.292;2023-06-22T02:17:19;7.57;;;6.88;;
30934;SDS011;51033;42.648;23.292;2023-06-22T02:19:45;11.48;;;8.05;;
30934;SDS011;51033;42.648;23.292;2023-06-22T02:22:12;7.38;;;6.28;;
30934;SDS011;51033;42.648;23.292;2023-06-22T02:24:40;9.10;;;6.05;;
30934;SDS011;51033;42.648;23.292;2023-06-22T02:27:05;7.75;;;7.00;;
30934;SDS011;51033;42.648;23.292;2023-06-22T02:29:32;7.82;;;6.68;;
30934;SDS011;51033;42.648;23.292;2023-06-22T02:31:57;7.50;;;6.45;;
30934;SDS011;51033;42.648;23.292;2023-06-22T02:34:23;6.53;;;5.85;;
30934;SDS011;51033;42.648;23.292;2023-06-22T02:36:48;9.48;;;6.85;;
30934;SDS011;51033;42.648;23.292;2023-06-22T02:39:18;8.43;;;7.55;;
30934;SDS011;51033;42.648;23.292;2023-06-22T02:41:48;8.85;;;7.00;;
30934;SDS011;51033;42.648;23.292;2023-06-22T02:44:16;7.57;;;6.70;;
30934;SDS011;51033;42.648;23.292;2023-06-22T02:46:42;7.07;;;6.38;;
30934;SDS011;51033;42.648;23.292;2023-06-22T02:49:08;8.98;;;6.85;;
30934;SDS011;51033;42.648;23.292;2023-06-22T02:51:33;8.70;;;7.25;;
30934;SDS011;51033;42.648;23.292;2023-06-22T02:53:59;6.97;;;6.28;;
30934;SDS011;51033;42.648;23.292;2023-06-22T02:56:25;7.35;;;6.18;;
30934;SDS011;51033;42.648;23.292;2023-06-22T02:58:51;11.95;;;7.05;;
30934;SDS011;51033;42.648;23.292;2023-06-22T03:01:17;8.82;;;6.88;;
30934;SDS011;51033;42.648;23.292;2023-06-22T03:03:48;7.90;;;7.10;;
30934;SDS011;51033;42.648;23.292;2023-06-22T03:06:13;8.02;;;7.22;;
30934;SDS011;51033;42.648;23.292;2023-06-22T03:08:39;8.93;;;7.78;;
30934;SDS011;51033;42.648;23.292;2023-06-22T03:11:04;7.65;;;6.85;;
30934;SDS011;51033;42.648;23.292;2023-06-22T03:13:29;12.70;;;7.82;;
30934;SDS011;51033;42.648;23.292;2023-06-22T03:15:55;12.00;;;7.93;;
30934;SDS011;51033;42.648;23.292;2023-06-22T03:18:20;8.48;;;7.68;;
30934;SDS011;51033;42.648;23.292;2023-06-22T03:20:47;8.45;;;7.38;;
30934;SDS011;51033;42.648;23.292;2023-06-22T03:23:12;10.35;;;8.13;;
30934;SDS011;51033;42.648;23.292;2023-06-22T03:25:38;10.10;;;7.40;;
30934;SDS011;51033;42.648;23.292;2023-06-22T03:28:03;9.23;;;7.40;;
30934;SDS011;51033;42.648;23.292;2023-06-22T03:30:29;10.85;;;8.43;;
30934;SDS011;51033;42.648;23.292;2023-06-22T03:32:54;9.00;;;7.95;;
30934;SDS011;51033;42.648;23.292;2023-06-22T03:35:20;10.02;;;8.70;;
30934;SDS011;51033;42.648;23.292;2023-06-22T03:37:45;9.48;;;8.20;;
30934;SDS011;51033;42.648;23.292;2023-06-22T03:40:10;9.23;;;8.32;;
30934;SDS011;51033;42.648;23.292;2023-06-22T03:42:36;10.32;;;9.23;;
30934;SDS011;51033;42.648;23.292;2023-06-22T03:45:02;11.32;;;8.65;;
30934;SDS011;51033;42.648;23.292;2023-06-22T03:47:28;8.90;;;8.00;;
30934;SDS011;51033;42.648;23.292;2023-06-22T03:49:54;11.38;;;9.77;;
30934;SDS011;51033;42.648;23.292;2023-06-22T03:52:20;11.23;;;8.50;;
30934;SDS011;51033;42.648;23.292;2023-06-22T03:54:47;13.80;;;9.45;;
30934;SDS011;51033;42.648;23.292;2023-06-22T03:57:13;15.32;;;9.60;;
30934;SDS011;51033;42.648;23.292;2023-06-22T03:59:38;13.07;;;9.23;;
30934;SDS011;51033;42.648;23.292;2023-06-22T04:02:04;17.83;;;10.63;;
30934;SDS011;51033;42.648;23.292;2023-06-22T04:04:29;12.88;;;9.32;;
30934;SDS011;51033;42.648;23.292;2023-06-22T04:06:54;12.52;;;9.90;;
30934;SDS011;51033;42.648;23.292;2023-06-22T04:09:20;14.43;;;9.27;;
30934;SDS011;51033;42.648;23.292;2023-06-22T04:11:46;12.90;;;9.27;;
30934;SDS011;51033;42.648;23.292;2023-06-22T04:14:12;10.05;;;8.20;;
30934;SDS011;51033;42.648;23.292;2023-06-22T04:16:37;10.75;;;9.25;;
30934;SDS011;51033;42.648;23.292;2023-06-22T04:19:03;16.20;;;10.60;;
30934;SDS011;51033;42.648;23.292;2023-06-22T04:21:28;14.00;;;9.65;;
30934;SDS011;51033;42.648;23.292;2023-06-22T04:23:54;11.57;;;9.00;;
30934;SDS011;51033;42.648;23.292;2023-06-22T04:26:19;12.18;;;9.88;;
30934;SDS011;51033;42.648;23.292;2023-06-22T04:28:46;18.23;;;10.20;;
30934;SDS011;51033;42.648;23.292;2023-06-22T04:31:16;12.80;;;9.75;;
30934;SDS011;51033;42.648;23.292;2023-06-22T04:33:43;11.57;;;9.65;;
30934;SDS011;51033;42.648;23.292;2023-06-22T04:36:08;15.55;;;9.65;;
30934;SDS011;51033;42.648;23.292;2023-06-22T04:38:33;14.63;;;9.15;;
30934;SDS011;51033;42.648;23.292;2023-06-22T04:40:59;19.60;;;9.77;;
30934;SDS011;51033;42.648;23.292;2023-06-22T04:43:26;17.42;;;11.07;;
30934;SDS011;51033;42.648;23.292;2023-06-22T04:45:55;17.75;;;10.88;;
30934;SDS011;51033;42.648;23.292;2023-06-22T04:48:21;17.02;;;10.82;;
30934;SDS011;51033;42.648;23.292;2023-06-22T04:50:46;15.15;;;10.93;;
30934;SDS011;51033;42.648;23.292;2023-06-22T04:53:12;16.98;;;10.20;;
30934;SDS011;51033;42.648;23.292;2023-06-22T04:55:37;16.52;;;10.82;;
30934;SDS011;51033;42.648;23.292;2023-06-22T04:58:06;17.20;;;12.02;;
30934;SDS011;51033;42.648;23.292;2023-06-22T05:00:32;16.42;;;11.88;;
30934;SDS011;51033;42.648;23.292;2023-06-22T05:03:01;25.98;;;13.02;;
30934;SDS011;51033;42.648;23.292;2023-06-22T05:05:28;16.83;;;11.00;;
30934;SDS011;51033;42.648;23.292;2023-06-22T05:07:55;20.05;;;12.75;;
30934;SDS011;51033;42.648;23.292;2023-06-22T05:10:24;16.05;;;12.20;;
30934;SDS011;51033;42.648;23.292;2023-06-22T05:12:50;16.52;;;12.15;;
30934;SDS011;51033;42.648;23.292;2023-06-22T05:15:15;22.35;;;11.95;;
30934;SDS011;51033;42.648;23.292;2023-06-22T05:17:41;29.98;;;12.63;;
30934;SDS011;51033;42.648;23.292;2023-06-22T05:20:13;23.42;;;12.18;;
30934;SDS011;51033;42.648;23.292;2023-06-22T05:22:39;23.05;;;12.23;;
30934;SDS011;51033;42.648;23.292;2023-06-22T05:25:08;15.80;;;12.23;;
30934;SDS011;51033;42.648;23.292;2023-06-22T05:27:34;17.58;;;12.98;;
30934;SDS011;51033;42.648;23.292;2023-06-22T05:30:04;24.75;;;14.35;;
30934;SDS011;51033;42.648;23.292;2023-06-22T05:32:34;15.80;;;12.50;;
30934;SDS011;51033;42.648;23.292;2023-06-22T05:34:59;18.98;;;12.80;;
30934;SDS011;51033;42.648;23.292;2023-06-22T05:37:25;16.33;;;13.50;;
30934;SDS011;51033;42.648;23.292;2023-06-22T05:39:51;23.98;;;12.93;;
30934;SDS011;51033;42.648;23.292;2023-06-22T05:42:17;20.25;;;13.18;;
30934;SDS011;51033;42.648;23.292;2023-06-22T05:44:42;29.48;;;14.65;;
30934;SDS011;51033;42.648;23.292;2023-06-22T05:47:08;20.15;;;14.15;;
30934;SDS011;51033;42.648;23.292;2023-06-22T05:49:33;22.80;;;13.70;;
30934;SDS011;51033;42.648;23.292;2023-06-22T05:51:59;20.60;;;14.25;;
30934;SDS011;51033;42.648;23.292;2023-06-22T05:54:27;17.45;;;13.75;;
30934;SDS011;51033;42.648;23.292;2023-06-22T05:56:53;17.48;;;12.80;;
30934;SDS011;51033;42.648;23.292;2023-06-22T05:59:18;15.82;;;12.88;;
30934;SDS011;51033;42.648;23.292;2023-06-22T06:01:44;17.50;;;13.93;;
30934;SDS011;51033;42.648;23.292;2023-06-22T06:04:09;17.50;;;14.23;;
30934;SDS011;51033;42.648;23.292;2023-06-22T06:06:35;17.83;;;13.65;;
30934;SDS011;51033;42.648;23.292;2023-06-22T06:09:02;18.30;;;14.57;;
30934;SDS011;51033;42.648;23.292;2023-06-22T06:11:29;19.80;;;13.82;;
30934;SDS011;51033;42.648;23.292;2023-06-22T06:13:54;17.10;;;12.95;;
30934;SDS011;51033;42.648;23.292;2023-06-22T06:16:20;18.92;;;13.23;;
30934;SDS011;51033;42.648;23.292;2023-06-22T06:18:47;19.00;;;13.57;;
30934;SDS011;51033;42.648;23.292;2023-06-22T06:21:14;17.40;;;14.48;;
30934;SDS011;51033;42.648;23.292;2023-06-22T06:23:40;18.90;;;13.57;;
30934;SDS011;51033;42.648;23.292;2023-06-22T06:26:05;18.20;;;14.00;;
30934;SDS011;51033;42.648;23.292;2023-06-22T06:28:32;21.67;;;12.75;;
30934;SDS011;51033;42.648;23.292;2023-06-22T06:30:57;17.83;;;12.70;;
30934;SDS011;51033;42.648;23.292;2023-06-22T06:33:22;21.42;;;13.73;;
30934;SDS011;51033;42.648;23.292;2023-06-22T06:35:49;17.27;;;12.30;;
30934;SDS011;51033;42.648;23.292;2023-06-22T06:38:14;18.95;;;13.02;;
30934;SDS011;51033;42.648;23.292;2023-06-22T06:40:40;19.45;;;13.15;;
30934;SDS011;51033;42.648;23.292;2023-06-22T06:43:06;17.48;;;12.35;;
30934;SDS011;51033;42.648;23.292;2023-06-22T06:45:31;18.30;;;13.63;;
30934;SDS011;51033;42.648;23.292;2023-06-22T06:47:59;16.55;;;11.98;;
30934;SDS011;51033;42.648;23.292;2023-06-22T06:50:25;16.05;;;11.70;;
30934;SDS011;51033;42.648;23.292;2023-06-22T06:52:50;14.55;;;12.10;;
30934;SDS011;51033;42.648;23.292;2023-06-22T06:55:16;16.23;;;11.70;;
30934;SDS011;51033;42.648;23.292;2023-06-22T06:57:42;19.10;;;12.45;;
30934;SDS011;51033;42.648;23.292;2023-06-22T07:00:09;17.38;;;11.77;;
30934;SDS011;51033;42.648;23.292;2023-06-22T07:02:41;18.35;;;12.20;;
30934;SDS011;51033;42.648;23.292;2023-06-22T07:05:08;18.25;;;13.00;;
30934;SDS011;51033;42.648;23.292;2023-06-22T07:07:34;18.98;;;13.30;;
30934;SDS011;51033;42.648;23.292;2023-06-22T07:10:00;15.43;;;11.52;;
30934;SDS011;51033;42.648;23.292;2023-06-22T07:12:25;19.58;;;12.27;;
30934;SDS011;51033;42.648;23.292;2023-06-22T07:14:51;16.95;;;11.48;;
30934;SDS011;51033;42.648;23.292;2023-06-22T07:17:17;15.38;;;11.98;;
30934;SDS011;51033;42.648;23.292;2023-06-22T07:19:43;17.15;;;11.50;;
30934;SDS011;51033;42.648;23.292;2023-06-22T07:22:08;18.45;;;12.95;;
30934;SDS011;51033;42.648;23.292;2023-06-22T07:24:33;16.20;;;11.13;;
30934;SDS011;51033;42.648;23.292;2023-06-22T07:26:59;16.85;;;11.65;;
30934;SDS011;51033;42.648;23.292;2023-06-22T07:29:25;14.35;;;10.43;;
30934;SDS011;51033;42.648;23.292;2023-06-22T07:31:51;15.13;;;11.68;;
30934;SDS011;51033;42.648;23.292;2023-06-22T07:34:18;12.30;;;10.93;;
30934;SDS011;51033;42.648;23.292;2023-06-22T07:36:44;13.05;;;11.52;;
30934;SDS011;51033;42.648;23.292;2023-06-22T07:39:10;13.18;;;11.07;;
30934;SDS011;51033;42.648;23.292;2023-06-22T07:41:36;15.25;;;11.43;;
30934;SDS011;51033;42.648;23.292;2023-06-22T07:44:02;16.42;;;11.57;;
30934;SDS011;51033;42.648;23.292;2023-06-22T07:46:28;17.08;;;11.07;;
30934;SDS011;51033;42.648;23.292;2023-06-22T07:48:55;16.38;;;11.57;;
30934;SDS011;51033;42.648;23.292;2023-06-22T07:51:21;16.27;;;11.80;;
30934;SDS011;51033;42.648;23.292;2023-06-22T07:53:46;12.15;;;10.85;;
30934;SDS011;51033;42.648;23.292;2023-06-22T07:56:12;13.20;;;10.90;;
30934;SDS011;51033;42.648;23.292;2023-06-22T07:58:39;15.50;;;11.18;;
30934;SDS011;51033;42.648;23.292;2023-06-22T08:01:04;14.90;;;11.23;;
30934;SDS011;51033;42.648;23.292;2023-06-22T08:03:31;17.88;;;12.20;;
30934;SDS011;51033;42.648;23.292;2023-06-22T08:05:56;14.63;;;11.02;;
30934;SDS011;51033;42.648;23.292;2023-06-22T08:08:22;11.25;;;10.15;;
30934;SDS011;51033;42.648;23.292;2023-06-22T08:10:47;12.15;;;10.82;;
30934;SDS011;51033;42.648;23.292;2023-06-22T08:13:13;11.30;;;10.20;;
30934;SDS011;51033;42.648;23.292;2023-06-22T08:15:38;14.50;;;10.95;;
30934;SDS011;51033;42.648;23.292;2023-06-22T08:18:04;13.30;;;10.65;;
30934;SDS011;51033;42.648;23.292;2023-06-22T08:20:30;16.00;;;10.52;;
30934;SDS011;51033;42.648;23.292;2023-06-22T08:22:56;15.38;;;11.38;;
30934;SDS011;51033;42.648;23.292;2023-06-22T08:25:22;16.67;;;11.82;;
30934;SDS011;51033;42.648;23.292;2023-06-22T08:27:48;12.48;;;11.27;;
30934;SDS011;51033;42.648;23.292;2023-06-22T08:30:14;13.55;;;10.73;;
30934;SDS011;51033;42.648;23.292;2023-06-22T08:32:40;13.45;;;12.15;;
30934;SDS011;51033;42.648;23.292;2023-06-22T08:35:05;14.82;;;11.38;;
30934;SDS011;51033;42.648;23.292;2023-06-22T08:37:33;16.33;;;12.15;;
30934;SDS011;51033;42.648;23.292;2023-06-22T08:40:00;13.52;;;11.80;;
30934;SDS011;51033;42.648;23.292;2023-06-22T08:42:30;13.98;;;11.15;;
30934;SDS011;51033;42.648;23.292;2023-06-22T08:44:56;18.20;;;11.82;;
30934;SDS011;51033;42.648;23.292;2023-06-22T08:47:22;17.13;;;12.10;;
30934;SDS011;51033;42.648;23.292;2023-06-22T08:49:48;12.93;;;11.40;;
30934;SDS011;51033;42.648;23.292;2023-06-22T08:52:14;12.70;;;10.05;;
30934;SDS011;51033;42.648;23.292;2023-06-22T08:54:39;15.07;;;12.65;;
30934;SDS011;51033;42.648;23.292;2023-06-22T08:57:05;17.05;;;11.85;;
30934;SDS011;51033;42.648;23.292;2023-06-22T08:59:30;13.32;;;11.65;;
30934;SDS011;51033;42.648;23.292;2023-06-22T09:01:56;15.48;;;11.27;;
30934;SDS011;51033;42.648;23.292;2023-06-22T09:04:21;14.15;;;10.77;;
30934;SDS011;51033;42.648;23.292;2023-06-22T09:06:47;12.25;;;10.73;;
30934;SDS011;51033;42.648;23.292;2023-06-22T09:09:15;12.85;;;10.18;;
30934;SDS011;51033;42.648;23.292;2023-06-22T09:11:41;10.98;;;9.88;;
30934;SDS011;51033;42.648;23.292;2023-06-22T09:14:06;11.50;;;8.70;;
30934;SDS011;51033;42.648;23.292;2023-06-22T09:16:32;9.15;;;8.35;;
30934;SDS011;51033;42.648;23.292;2023-06-22T09:18:57;9.63;;;8.55;;
30934;SDS011;51033;42.648;23.292;2023-06-22T09:21:23;11.95;;;9.35;;
30934;SDS011;51033;42.648;23.292;2023-06-22T09:23:49;9.85;;;8.80;;
30934;SDS011;51033;42.648;23.292;2023-06-22T09:26:16;9.60;;;8.65;;
30934;SDS011;51033;42.648;23.292;2023-06-22T09:28:42;12.80;;;9.60;;
30934;SDS011;51033;42.648;23.292;2023-06-22T09:31:08;12.20;;;10.00;;
30934;SDS011;51033;42.648;23.292;2023-06-22T09:33:33;10.50;;;8.80;;
30934;SDS011;51033;42.648;23.292;2023-06-22T09:35:59;9.95;;;8.38;;
30934;SDS011;51033;42.648;23.292;2023-06-22T09:38:24;10.45;;;8.15;;
30934;SDS011;51033;42.648;23.292;2023-06-22T09:40:49;10.73;;;9.13;;
30934;SDS011;51033;42.648;23.292;2023-06-22T09:43:15;10.52;;;9.52;;
30934;SDS011;51033;42.648;23.292;2023-06-22T09:45:40;10.93;;;9.10;;
30934;SDS011;51033;42.648;23.292;2023-06-22T09:48:05;11.18;;;9.98;;
30934;SDS011;51033;42.648;23.292;2023-06-22T09:50:31;10.27;;;9.27;;
30934;SDS011;51033;42.648;23.292;2023-06-22T09:52:56;10.80;;;8.95;;
30934;SDS011;51033;42.648;23.292;2023-06-22T09:55:22;11.00;;;9.13;;
30934;SDS011;51033;42.648;23.292;2023-06-22T09:57:47;9.50;;;8.32;;
30934;SDS011;51033;42.648;23.292;2023-06-22T10:00:13;9.55;;;8.65;;
30934;SDS011;51033;42.648;23.292;2023-06-22T10:02:43;9.10;;;7.90;;
30934;SDS011;51033;42.648;23.292;2023-06-22T10:05:08;10.93;;;9.82;;
30934;SDS011;51033;42.648;23.292;2023-06-22T10:07:34;9.98;;;8.98;;
30934;SDS011;51033;42.648;23.292;2023-06-22T10:09:59;10.15;;;9.00;;
30934;SDS011;51033;42.648;23.292;2023-06-22T10:12:26;9.02;;;8.13;;
30934;SDS011;51033;42.648;23.292;2023-06-22T10:14:52;9.38;;;8.38;;
30934;SDS011;51033;42.648;23.292;2023-06-22T10:17:18;9.90;;;8.80;;
30934;SDS011;51033;42.648;23.292;2023-06-22T10:19:43;10.88;;;8.77;;
30934;SDS011;51033;42.648;23.292;2023-06-22T10:22:08;9.23;;;7.97;;
30934;SDS011;51033;42.648;23.292;2023-06-22T10:24:34;10.02;;;9.05;;
30934;SDS011;51033;42.648;23.292;2023-06-22T10:26:59;10.52;;;9.55;;
30934;SDS011;51033;42.648;23.292;2023-06-22T10:29:25;10.18;;;9.18;;
30934;SDS011;51033;42.648;23.292;2023-06-22T10:31:50;9.43;;;8.40;;
30934;SDS011;51033;42.648;23.292;2023-06-22T10:34:15;9.57;;;8.65;;
30934;SDS011;51033;42.648;23.292;2023-06-22T10:36:41;10.85;;;8.50;;
30934;SDS011;51033;42.648;23.292;2023-06-22T10:39:07;8.80;;;7.97;;
30934;SDS011;51033;42.648;23.292;2023-06-22T10:41:32;9.20;;;8.30;;
30934;SDS011;51033;42.648;23.292;2023-06-22T10:43:58;9.52;;;8.20;;
30934;SDS011;51033;42.648;23.292;2023-06-22T10:46:26;10.15;;;8.48;;
30934;SDS011;51033;42.648;23.292;2023-06-22T10:48:52;10.32;;;8.70;;
30934;SDS011;51033;42.648;23.292;2023-06-22T10:51:20;9.07;;;8.15;;
30934;SDS011;51033;42.648;23.292;2023-06-22T10:53:45;10.55;;;9.20;;
30934;SDS011;51033;42.648;23.292;2023-06-22T10:56:11;10.13;;;9.13;;
30934;SDS011;51033;42.648;23.292;2023-06-22T10:58:36;11.43;;;8.75;;
30934;SDS011;51033;42.648;23.292;2023-06-22T11:01:01;11.45;;;8.85;;
30934;SDS011;51033;42.648;23.292;2023-06-22T11:03:28;11.15;;;9.35;;
30934;SDS011;51033;42.648;23.292;2023-06-22T11:05:53;10.95;;;8.85;;
30934;SDS011;51033;42.648;23.292;2023-06-22T11:08:19;9.75;;;8.07;;
30934;SDS011;51033;42.648;23.292;2023-06-22T11:10:44;11.27;;;8.73;;
30934;SDS011;51033;42.648;23.292;2023-06-22T11:13:10;9.77;;;8.75;;
30934;SDS011;51033;42.648;23.292;2023-06-22T11:15:36;10.80;;;9.02;;
30934;SDS011;51033;42.648;23.292;2023-06-22T11:18:01;10.05;;;8.52;;
30934;SDS011;51033;42.648;23.292;2023-06-22T11:20:27;15.20;;;8.63;;
30934;SDS011;51033;42.648;23.292;2023-06-22T11:22:52;11.07;;;9.38;;
30934;SDS011;51033;42.648;23.292;2023-06-22T11:25:17;9.45;;;8.48;;
30934;SDS011;51033;42.648;23.292;2023-06-22T11:27:43;10.10;;;9.10;;
30934;SDS011;51033;42.648;23.292;2023-06-22T11:30:08;9.15;;;8.05;;
30934;SDS011;51033;42.648;23.292;2023-06-22T11:32:34;10.20;;;9.18;;
30934;SDS011;51033;42.648;23.292;2023-06-22T11:35:00;10.30;;;8.38;;
30934;SDS011;51033;42.648;23.292;2023-06-22T11:37:26;15.00;;;8.82;;
30934;SDS011;51033;42.648;23.292;2023-06-22T11:39:51;12.85;;;8.93;;
30934;SDS011;51033;42.648;23.292;2023-06-22T11:42:19;9.13;;;8.32;;
30934;SDS011;51033;42.648;23.292;2023-06-22T11:44:45;8.93;;;8.02;;
30934;SDS011;51033;42.648;23.292;2023-06-22T11:47:10;12.98;;;9.23;;
30934;SDS011;51033;42.648;23.292;2023-06-22T11:49:36;15.13;;;9.75;;
30934;SDS011;51033;42.648;23.292;2023-06-22T11:52:01;10.93;;;9.80;;
30934;SDS011;51033;42.648;23.292;2023-06-22T11:54:27;10.55;;;9.10;;
30934;SDS011;51033;42.648;23.292;2023-06-22T11:56:52;9.90;;;8.93;;
30934;SDS011;51033;42.648;23.292;2023-06-22T11:59:17;10.70;;;8.55;;
30934;SDS011;51033;42.648;23.292;2023-06-22T12:01:43;9.65;;;8.63;;
30934;SDS011;51033;42.648;23.292;2023-06-22T12:04:09;12.00;;;8.52;;
30934;SDS011;51033;42.648;23.292;2023-06-22T12:06:37;10.98;;;9.35;;
30934;SDS011;51033;42.648;23.292;2023-06-22T12:09:03;11.65;;;8.75;;
30934;SDS011;51033;42.648;23.292;2023-06-22T12:11:29;20.10;;;10.07;;
30934;SDS011;51033;42.648;23.292;2023-06-22T12:13:55;10.60;;;9.38;;
30934;SDS011;51033;42.648;23.292;2023-06-22T12:16:20;12.02;;;9.93;;
30934;SDS011;51033;42.648;23.292;2023-06-22T12:18:46;10.05;;;9.13;;
30934;SDS011;51033;42.648;23.292;2023-06-22T12:21:12;11.70;;;9.45;;
30934;SDS011;51033;42.648;23.292;2023-06-22T12:23:38;9.73;;;8.82;;
30934;SDS011;51033;42.648;23.292;2023-06-22T12:26:04;19.33;;;9.65;;
30934;SDS011;51033;42.648;23.292;2023-06-22T12:28:29;10.07;;;9.07;;
30934;SDS011;51033;42.648;23.292;2023-06-22T12:30:55;11.40;;;9.55;;
30934;SDS011;51033;42.648;23.292;2023-06-22T12:33:20;10.20;;;9.15;;
30934;SDS011;51033;42.648;23.292;2023-06-22T12:35:45;14.25;;;9.55;;
30934;SDS011;51033;42.648;23.292;2023-06-22T12:38:13;10.43;;;9.25;;
30934;SDS011;51033;42.648;23.292;2023-06-22T12:40:39;11.85;;;9.63;;
30934;SDS011;51033;42.648;23.292;2023-06-22T12:43:04;11.18;;;8.63;;
30934;SDS011;51033;42.648;23.292;2023-06-22T12:45:30;11.13;;;8.73;;
30934;SDS011;51033;42.648;23.292;2023-06-22T12:47:58;10.90;;;9.05;;
30934;SDS011;51033;42.648;23.292;2023-06-22T12:50:24;16.05;;;9.98;;
30934;SDS011;51033;42.648;23.292;2023-06-22T12:52:50;9.68;;;8.50;;
30934;SDS011;51033;42.648;23.292;2023-06-22T12:55:15;10.98;;;9.82;;
30934;SDS011;51033;42.648;23.292;2023-06-22T12:57:41;13.07;;;7.85;;
30934;SDS011;51033;42.648;23.292;2023-06-22T13:00:06;8.50;;;6.93;;
30934;SDS011;51033;42.648;23.292;2023-06-22T13:02:34;10.98;;;7.38;;
30934;SDS011;51033;42.648;23.292;2023-06-22T13:05:00;11.10;;;8.48;;
30934;SDS011;51033;42.648;23.292;2023-06-22T13:07:26;11.75;;;9.85;;
30934;SDS011;51033;42.648;23.292;2023-06-22T13:09:51;11.93;;;9.80;;
30934;SDS011;51033;42.648;23.292;2023-06-22T13:12:17;10.98;;;9.85;;
30934;SDS011;51033;42.648;23.292;2023-06-22T13:14:43;11.85;;;10.50;;
30934;SDS011;51033;42.648;23.292;2023-06-22T13:17:08;12.20;;;9.15;;
30934;SDS011;51033;42.648;23.292;2023-06-22T13:19:34;15.70;;;9.70;;
30934;SDS011;51033;42.648;23.292;2023-06-22T13:21:59;12.40;;;9.32;;
30934;SDS011;51033;42.648;23.292;2023-06-22T13:24:25;10.45;;;9.20;;
30934;SDS011;51033;42.648;23.292;2023-06-22T13:26:50;10.57;;;9.00;;
30934;SDS011;51033;42.648;23.292;2023-06-22T13:29:16;12.02;;;9.80;;
30934;SDS011;51033;42.648;23.292;2023-06-22T13:31:41;10.52;;;9.48;;
30934;SDS011;51033;42.648;23.292;2023-06-22T13:34:07;11.27;;;9.25;;
30934;SDS011;51033;42.648;23.292;2023-06-22T13:36:32;11.43;;;9.00;;
30934;SDS011;51033;42.648;23.292;2023-06-22T13:38:57;10.75;;;8.90;;
30934;SDS011;51033;42.648;23.292;2023-06-22T13:41:23;13.05;;;9.48;;
30934;SDS011;51033;42.648;23.292;2023-06-22T13:43:48;13.18;;;9.98;;
30934;SDS011;51033;42.648;23.292;2023-06-22T13:46:14;11.30;;;10.18;;
30934;SDS011;51033;42.648;23.292;2023-06-22T13:48:39;15.10;;;9.13;;
30934;SDS011;51033;42.648;23.292;2023-06-22T13:51:05;8.32;;;7.53;;
30934;SDS011;51033;42.648;23.292;2023-06-22T13:53:30;15.45;;;9.70;;
30934;SDS011;51033;42.648;23.292;2023-06-22T13:55:55;8.48;;;7.68;;
30934;SDS011;51033;42.648;23.292;2023-06-22T13:58:21;9.77;;;6.43;;
30934;SDS011;51033;42.648;23.292;2023-06-22T14:00:46;10.38;;;6.72;;
30934;SDS011;51033;42.648;23.292;2023-06-22T14:03:13;9.63;;;7.82;;
30934;SDS011;51033;42.648;23.292;2023-06-22T14:05:41;8.15;;;7.18;;
30934;SDS011;51033;42.648;23.292;2023-06-22T14:08:06;7.25;;;6.55;;
30934;SDS011;51033;42.648;23.292;2023-06-22T14:10:31;8.95;;;6.82;;
30934;SDS011;51033;42.648;23.292;2023-06-22T14:12:57;14.65;;;7.85;;
30934;SDS011;51033;42.648;23.292;2023-06-22T14:15:23;8.60;;;6.68;;
30934;SDS011;51033;42.648;23.292;2023-06-22T14:17:48;17.10;;;6.88;;
30934;SDS011;51033;42.648;23.292;2023-06-22T14:20:14;11.32;;;7.80;;
30934;SDS011;51033;42.648;23.292;2023-06-22T14:22:39;8.43;;;7.32;;
30934;SDS011;51033;42.648;23.292;2023-06-22T14:25:05;12.15;;;7.03;;
30934;SDS011;51033;42.648;23.292;2023-06-22T14:27:31;8.27;;;7.53;;